Time;durP1;ratioP1;P1;durP2;ratioP2;P2;SDS_P1;SDS_P2;PMS_P1;PMS_P2;Temp;Humidity;BMP_temperature;BMP_pressure;BME280_temperature;BME280_humidity;BME280_pressure;Samples;Min_cycle;Max_cycle;Signal;HPM_P1;HPM_P2
2021/03/14 00:00:29;;;;;;;1.97;1.23;;;5.10;1.00;;;;;;5094700;28;20540;-69
2021/03/14 00:02:56;;;;;;;3.33;1.48;;;5.20;1.00;;;;;;5094510;28;20455;-69
2021/03/14 00:05:22;;;;;;;6.13;1.30;;;5.10;1.00;;;;;;5094431;28;20187;-69
2021/03/14 00:07:47;;;;;;;4.43;1.20;;;5.10;1.00;;;;;;5093922;28;20237;-69
2021/03/14 00:10:13;;;;;;;4.80;1.60;;;5.30;1.00;;;;;;5094626;28;20167;-69
2021/03/14 00:12:39;;;;;;;10.27;2.73;;;5.30;1.00;;;;;;5094335;28;20711;-69
2021/03/14 00:15:07;;;;;;;5.75;2.13;;;5.20;1.00;;;;;;5095126;28;20203;-69
2021/03/14 00:17:32;;;;;;;3.63;1.33;;;5.20;1.00;;;;;;5094634;28;20216;-69
2021/03/14 00:19:58;;;;;;;2.50;1.30;;;5.10;1.00;;;;;;5094440;28;20175;-69
2021/03/14 00:22:23;;;;;;;8.30;2.10;;;5.10;1.00;;;;;;5094564;28;20194;-69
2021/03/14 00:24:49;;;;;;;3.70;1.37;;;5.10;16.70;;;;;;5094414;28;20628;-69
2021/03/14 00:27:14;;;;;;;10.07;1.90;;;5.10;1.00;;;;;;5094213;28;20167;-69
2021/03/14 00:29:40;;;;;;;3.83;1.23;;;5.30;1.00;;;;;;5094119;28;20225;-70
2021/03/14 00:32:06;;;;;;;4.70;1.73;;;5.30;1.00;;;;;;5094042;28;20209;-70
2021/03/14 00:34:31;;;;;;;3.60;1.47;;;5.30;1.00;;;;;;5094054;28;20168;-70
2021/03/14 00:36:57;;;;;;;5.03;1.30;;;5.20;1.00;;;;;;5094029;28;20179;-70
2021/03/14 00:39:23;;;;;;;7.20;1.70;;;5.20;1.00;;;;;;5093967;28;20202;-70
2021/03/14 00:41:48;;;;;;;3.47;1.50;;;5.40;1.00;;;;;;5093635;28;20526;-69
2021/03/14 00:44:14;;;;;;;3.40;1.70;;;5.30;1.00;;;;;;5093865;28;20163;-70
2021/03/14 00:46:40;;;;;;;5.30;1.70;;;5.40;1.00;;;;;;5093734;28;20267;-70
2021/03/14 00:49:05;;;;;;;3.80;1.70;;;5.30;1.00;;;;;;5093691;28;20171;-69
2021/03/14 00:51:31;;;;;;;4.47;2.30;;;5.30;1.00;;;;;;5093630;28;20183;-70
2021/03/14 00:53:58;;;;;;;6.63;1.60;;;5.20;1.00;;;;;;5093620;28;20171;-70
2021/03/14 00:56:24;;;;;;;6.03;1.55;;;5.30;1.00;;;;;;5093595;28;20713;-70
2021/03/14 00:58:49;;;;;;;6.53;1.87;;;5.20;1.00;;;;;;5093534;28;20176;-70
2021/03/14 01:01:15;;;;;;;6.13;1.83;;;5.30;1.00;;;;;;5093467;28;20639;-70
2021/03/14 01:03:40;;;;;;;3.63;1.30;;;5.30;1.00;;;;;;5093554;28;20179;-70
2021/03/14 01:06:06;;;;;;;2.50;1.00;;;5.30;1.00;;;;;;5093414;28;20198;-69
2021/03/14 01:08:32;;;;;;;8.40;1.80;;;5.30;1.00;;;;;;5093576;28;20186;-70
2021/03/14 01:10:58;;;;;;;5.33;1.50;;;5.50;1.00;;;;;;5093654;28;20566;-69
2021/03/14 01:13:23;;;;;;;4.50;1.92;;;5.30;1.00;;;;;;5093506;28;20672;-70
2021/03/14 01:15:49;;;;;;;3.93;1.37;;;5.50;1.00;;;;;;5093441;28;20182;-69
2021/03/14 01:18:14;;;;;;;11.30;3.30;;;5.40;1.00;;;;;;5092483;28;20214;-69
2021/03/14 01:20:40;;;;;;;4.50;1.50;;;5.40;1.00;;;;;;5093199;28;20693;-70
2021/03/14 01:23:05;;;;;;;7.20;1.60;;;5.40;1.00;;;;;;5093326;28;20188;-69
2021/03/14 01:25:31;;;;;;;5.67;1.80;;;5.50;1.00;;;;;;5093447;28;20249;-69
2021/03/14 01:27:57;;;;;;;4.33;1.47;;;5.50;1.00;;;;;;5093295;28;20537;-70
2021/03/14 01:30:22;;;;;;;3.13;1.43;;;5.60;1.00;;;;;;5093342;28;20172;-69
2021/03/14 01:32:48;;;;;;;5.30;1.30;;;5.50;1.00;;;;;;5093704;28;20647;-70
2021/03/14 01:35:15;;;;;;;10.60;2.22;;;5.40;1.00;;;;;;5093178;28;20177;-69
2021/03/14 01:37:41;;;;;;;8.85;2.20;;;5.30;1.00;;;;;;5093232;28;20297;-70
2021/03/14 01:40:08;;;;;;;8.40;2.20;;;5.50;1.00;;;;;;5093251;28;20191;-70
2021/03/14 01:42:34;;;;;;;6.88;1.73;;;5.40;1.00;;;;;;5093374;28;20195;-70
2021/03/14 01:45:01;;;;;;;5.55;1.90;;;5.40;1.00;;;;;;5093309;28;20651;-69
2021/03/14 01:47:37;;;;;;;8.25;2.35;;;5.50;1.00;;;;;;5093377;28;20198;-69
2021/03/14 01:50:08;;;;;;;5.85;1.83;;;5.30;1.00;;;;;;5093002;28;20148;-69
2021/03/14 01:52:34;;;;;;;3.42;1.33;;;5.40;1.00;;;;;;5092970;28;20179;-69
2021/03/14 01:55:01;;;;;;;4.40;1.30;;;5.40;1.00;;;;;;5093012;28;20221;-69
2021/03/14 01:57:27;;;;;;;4.93;1.33;;;5.30;1.00;;;;;;5093294;28;20943;-68
2021/03/14 01:59:53;;;;;;;2.75;1.13;;;5.30;1.00;;;;;;5092905;28;20181;-70
2021/03/14 02:02:19;;;;;;;4.03;1.33;;;5.30;1.00;;;;;;5092933;28;20270;-69
2021/03/14 02:04:45;;;;;;;3.10;1.05;;;5.40;1.00;;;;;;5092922;28;20463;-70
2021/03/14 02:07:10;;;;;;;3.17;1.27;;;5.40;1.00;;;;;;5093017;28;20266;-69
2021/03/14 02:09:37;;;;;;;5.77;1.60;;;5.30;1.00;;;;;;5093444;28;20220;-70
2021/03/14 02:12:05;;;;;;;3.20;0.73;;;5.40;1.00;;;;;;5093000;28;20575;-69
2021/03/14 02:14:31;;;;;;;2.65;1.33;;;5.40;1.00;;;;;;5092851;28;20156;-70
2021/03/14 02:16:58;;;;;;;3.25;1.30;;;5.40;1.00;;;;;;5092824;28;20178;-70
2021/03/14 02:19:33;;;;;;;2.75;1.13;;;5.50;1.00;;;;;;5093102;28;20206;-70
2021/03/14 02:22:00;;;;;;;3.78;1.10;;;5.50;1.00;;;;;;5092841;28;20190;-70
2021/03/14 02:24:32;;;;;;;3.78;1.77;;;5.30;1.00;;;;;;5093065;28;20175;-70
2021/03/14 02:27:06;;;;;;;5.78;2.33;;;5.30;1.00;;;;;;5092970;28;20194;-69
2021/03/14 02:29:34;;;;;;;3.50;1.58;;;5.40;1.00;;;;;;5093725;28;20159;-69
2021/03/14 02:32:01;;;;;;;5.32;1.23;;;5.30;1.00;;;;;;5096499;28;20179;-69
2021/03/14 02:34:31;;;;;;;5.20;1.30;;;5.30;1.00;;;;;;5096589;28;20505;-70
2021/03/14 02:36:58;;;;;;;4.60;1.20;;;5.40;1.00;;;;;;5096413;28;20182;-69
2021/03/14 02:39:25;;;;;;;6.38;0.90;;;5.30;1.00;;;;;;5096703;28;20168;-69
2021/03/14 02:41:53;;;;;;;4.22;0.95;;;5.30;1.00;;;;;;5096526;28;20237;-70
2021/03/14 02:44:21;;;;;;;5.18;0.88;;;5.50;1.00;;;;;;5096603;28;20163;-69
2021/03/14 02:46:47;;;;;;;1.83;0.88;;;5.30;1.00;;;;;;5096564;28;20184;-69
2021/03/14 02:49:13;;;;;;;7.30;1.20;;;5.40;1.00;;;;;;5096124;28;20205;-70
2021/03/14 02:51:40;;;;;;;4.73;1.93;;;5.30;1.00;;;;;;5096089;28;20183;-69
2021/03/14 02:54:07;;;;;;;3.85;0.80;;;5.30;1.00;;;;;;5096145;28;20375;-69
2021/03/14 02:56:33;;;;;;;3.35;0.90;;;5.30;1.00;;;;;;5096428;28;20178;-69
2021/03/14 02:59:01;;;;;;;3.17;1.15;;;5.30;1.00;;;;;;5096170;28;20175;-70
2021/03/14 03:01:28;;;;;;;3.50;1.38;;;5.30;1.00;;;;;;5096488;28;20198;-69
2021/03/14 03:03:57;;;;;;;5.65;1.30;;;5.30;1.00;;;;;;5096085;28;20178;-70
2021/03/14 03:06:23;;;;;;;10.27;1.60;;;5.40;1.00;;;;;;5095662;28;20187;-69
2021/03/14 03:08:49;;;;;;;5.17;1.23;;;5.40;1.00;;;;;;5096134;28;20159;-70
2021/03/14 03:11:16;;;;;;;2.33;1.02;;;5.40;1.00;;;;;;5095763;28;20505;-69
2021/03/14 03:13:42;;;;;;;2.60;1.10;;;5.20;1.00;;;;;;5096083;28;20190;-69
2021/03/14 03:16:12;;;;;;;1.50;0.80;;;5.20;1.00;;;;;;5095985;28;20175;-70
2021/03/14 03:18:39;;;;;;;4.03;1.38;;;5.10;1.00;;;;;;5095687;28;20442;-70
2021/03/14 03:21:06;;;;;;;7.45;1.33;;;5.00;1.00;;;;;;5095565;28;20263;-69
2021/03/14 03:23:33;;;;;;;6.82;1.85;;;5.10;1.00;;;;;;5095852;28;20203;-69
2021/03/14 03:26:04;;;;;;;3.45;1.10;;;5.00;1.00;;;;;;5095509;28;20211;-69
2021/03/14 03:28:30;;;;;;;3.83;0.93;;;5.00;1.00;;;;;;5095457;28;20164;-70
2021/03/14 03:30:55;;;;;;;11.83;1.20;;;5.00;1.00;;;;;;5095452;28;20193;-70
2021/03/14 03:33:21;;;;;;;3.17;1.30;;;5.00;1.00;;;;;;5095280;28;20566;-69
2021/03/14 03:35:46;;;;;;;4.30;1.30;;;5.10;1.00;;;;;;5095335;28;20182;-69
2021/03/14 03:38:12;;;;;;;4.03;1.03;;;5.10;1.00;;;;;;5095545;28;20175;-69
2021/03/14 03:40:38;;;;;;;2.20;1.43;;;5.30;1.00;;;;;;5094821;28;20562;-69
2021/03/14 03:43:13;;;;;;;5.60;1.10;;;5.20;1.00;;;;;;5094782;28;20284;-69
2021/03/14 03:45:42;;;;;;;5.40;1.38;;;5.00;1.00;;;;;;5095376;28;20183;-70
2021/03/14 03:48:12;;;;;;;2.35;1.08;;;5.10;1.00;;;;;;5095112;28;20217;-69
2021/03/14 03:50:38;;;;;;;5.55;1.20;;;5.00;1.00;;;;;;5095059;28;20152;-70
2021/03/14 03:53:05;;;;;;;4.78;1.30;;;5.10;1.00;;;;;;5095013;28;20258;-70
2021/03/14 03:55:31;;;;;;;3.08;1.40;;;5.20;1.00;;;;;;5095200;28;20171;-70
2021/03/14 03:57:57;;;;;;;2.00;1.20;;;5.00;1.00;;;;;;5094855;28;20171;-70
2021/03/14 04:00:23;;;;;;;6.07;1.60;;;5.10;1.00;;;;;;5094793;28;20704;-69
2021/03/14 04:02:50;;;;;;;3.07;1.13;;;5.30;1.00;;;;;;5094733;28;20270;-70
2021/03/14 04:05:17;;;;;;;5.07;1.40;;;5.30;1.00;;;;;;5094928;28;20450;-70
2021/03/14 04:07:45;;;;;;;5.45;1.42;;;5.10;1.00;;;;;;5094581;28;20183;-69
2021/03/14 04:10:14;;;;;;;9.00;1.95;;;5.20;1.00;;;;;;5094607;28;20263;-70
2021/03/14 04:12:42;;;;;;;5.38;2.00;;;5.10;1.00;;;;;;5094497;28;20226;-69
2021/03/14 04:15:09;;;;;;;5.20;1.98;;;5.10;1.00;;;;;;5094517;28;20179;-70
2021/03/14 04:17:37;;;;;;;3.75;1.83;;;5.20;1.00;;;;;;5094482;28;20182;-70
2021/03/14 04:20:06;;;;;;;3.80;1.80;;;5.10;1.00;;;;;;5094490;28;20183;-69
2021/03/14 04:22:33;;;;;;;5.03;1.83;;;5.30;1.00;;;;;;5094601;28;20548;-69
2021/03/14 04:25:00;;;;;;;5.18;2.30;;;5.00;1.00;;;;;;5094534;28;20167;-69
2021/03/14 04:27:27;;;;;;;6.20;1.83;;;4.80;1.00;;;;;;5094326;28;20180;-70
2021/03/14 04:29:55;;;;;;;3.28;1.98;;;5.00;1.00;;;;;;5094306;28;20578;-68
2021/03/14 04:32:22;;;;;;;5.22;2.70;;;5.00;1.00;;;;;;5094335;28;20184;-69
2021/03/14 04:34:48;;;;;;;11.60;2.42;;;4.80;1.00;;;;;;5094230;28;20227;-70
2021/03/14 04:37:14;;;;;;;5.40;2.20;;;4.80;1.00;;;;;;5094097;28;20167;-69
2021/03/14 04:39:41;;;;;;;5.00;2.37;;;4.90;1.00;;;;;;5094058;28;20171;-69
2021/03/14 04:42:07;;;;;;;8.18;2.80;;;5.00;1.00;;;;;;5093956;28;20396;-69
2021/03/14 04:44:33;;;;;;;8.18;1.92;;;5.00;1.00;;;;;;5094043;28;20190;-69
2021/03/14 04:46:59;;;;;;;7.28;2.00;;;4.90;1.00;;;;;;5093898;28;20606;-70
2021/03/14 04:49:24;;;;;;;8.97;2.37;;;5.00;1.00;;;;;;5094260;28;20163;-69
2021/03/14 04:51:50;;;;;;;6.73;2.30;;;4.90;1.00;;;;;;5093655;28;20188;-69
2021/03/14 04:54:17;;;;;;;12.13;2.90;;;4.90;1.00;;;;;;5093924;28;20532;-69
2021/03/14 04:56:44;;;;;;;8.05;2.17;;;5.00;1.00;;;;;;5093811;28;20174;-70
2021/03/14 04:59:12;;;;;;;8.80;2.33;;;4.90;1.00;;;;;;5093999;28;20163;-70
2021/03/14 05:01:43;;;;;;;5.95;2.47;;;4.80;1.00;;;;;;5093581;28;20703;-69
2021/03/14 05:04:12;;;;;;;8.07;2.30;;;4.80;1.00;;;;;;5093603;28;20167;-69
2021/03/14 05:06:41;;;;;;;3.97;1.60;;;5.00;1.00;;;;;;5093653;28;20662;-69
2021/03/14 05:09:07;;;;;;;4.50;2.90;;;4.70;1.00;;;;;;5094047;28;20152;-69
2021/03/14 05:11:34;;;;;;;14.82;2.78;;;4.80;1.00;;;;;;5093453;28;20726;-69
2021/03/14 05:14:00;;;;;;;5.68;2.25;;;5.00;1.00;;;;;;5093471;28;20633;-70
2021/03/14 05:16:27;;;;;;;7.50;2.30;;;5.10;1.00;;;;;;5093752;28;20576;-69
2021/03/14 05:18:53;;;;;;;6.45;1.65;;;4.70;1.00;;;;;;5093435;28;20160;-69
2021/03/14 05:21:19;;;;;;;7.10;2.28;;;4.90;1.00;;;;;;5093336;28;20171;-70
2021/03/14 05:23:46;;;;;;;3.80;1.47;;;4.90;1.00;;;;;;5093382;28;20692;-70
2021/03/14 05:26:13;;;;;;;12.00;2.15;;;4.80;1.00;;;;;;5093313;28;20195;-70
2021/03/14 05:28:41;;;;;;;7.18;2.15;;;4.90;1.00;;;;;;5093286;28;20168;-69
2021/03/14 05:31:33;;;;;;;9.43;2.90;;;4.80;1.00;;;;;;5093375;28;20160;-69
2021/03/14 05:34:15;;;;;;;4.95;1.90;;;4.70;1.00;;;;;;5093302;28;20241;-70
2021/03/14 05:36:41;;;;;;;11.70;2.90;;;4.80;1.00;;;;;;5093234;28;20226;-70
2021/03/14 05:39:07;;;;;;;5.53;1.83;;;4.80;1.00;;;;;;5093185;28;20270;-69
2021/03/14 05:41:35;;;;;;;11.60;2.47;;;4.90;1.00;;;;;;5093018;28;20265;-69
2021/03/14 05:44:03;;;;;;;13.93;2.75;;;4.80;1.00;;;;;;5093070;28;20509;-69
2021/03/14 05:46:29;;;;;;;5.35;2.00;;;4.80;1.00;;;;;;5092940;28;20273;-69
2021/03/14 05:48:55;;;;;;;5.15;2.60;;;5.00;1.00;;;;;;5093030;28;20175;-70
2021/03/14 05:51:27;;;;;;;4.37;1.53;;;4.80;1.00;;;;;;5093013;28;20170;-70
2021/03/14 05:53:55;;;;;;;10.50;2.03;;;4.80;1.00;;;;;;5097139;28;20418;-69
2021/03/14 05:56:21;;;;;;;8.90;1.85;;;4.90;1.00;;;;;;5096599;28;20171;-69
2021/03/14 05:58:49;;;;;;;5.95;2.20;;;4.90;1.00;;;;;;5092639;28;20728;-69
2021/03/14 06:01:17;;;;;;;6.85;2.30;;;4.90;1.00;;;;;;5093331;28;20217;-69
2021/03/14 06:03:44;;;;;;;15.20;3.30;;;4.90;1.00;;;;;;5092971;28;20163;-69
2021/03/14 06:06:16;;;;;;;8.55;2.53;;;4.90;1.00;;;;;;5096699;28;20236;-69
2021/03/14 06:08:42;;;;;;;6.57;2.08;;;4.90;1.00;;;;;;5097340;28;20513;-69
2021/03/14 06:11:11;;;;;;;7.30;2.20;;;5.00;1.00;;;;;;5097214;28;20193;-68
2021/03/14 06:13:36;;;;;;;5.53;2.15;;;4.90;1.00;;;;;;5097113;28;20238;-70
2021/03/14 06:16:02;;;;;;;10.87;2.30;;;4.80;1.00;;;;;;5096833;28;20214;-69
2021/03/14 06:18:28;;;;;;;7.70;2.60;;;4.90;1.00;;;;;;5096897;28;20263;-69
2021/03/14 06:20:54;;;;;;;5.60;3.07;;;5.00;1.00;;;;;;5096833;28;20430;-69
2021/03/14 06:23:21;;;;;;;6.63;2.60;;;4.90;1.00;;;;;;5096676;28;20399;-69
2021/03/14 06:25:49;;;;;;;5.60;3.22;;;5.00;1.00;;;;;;5096646;28;20434;-70
2021/03/14 06:28:15;;;;;;;11.13;3.67;;;5.20;1.00;;;;;;5096571;28;20179;-70
2021/03/14 06:30:43;;;;;;;9.95;2.90;;;5.20;1.00;;;;;;5096604;28;20197;-70
2021/03/14 06:33:16;;;;;;;12.85;3.60;;;5.20;1.00;;;;;;5097483;28;20187;-70
2021/03/14 06:35:48;;;;;;;15.10;3.90;;;5.20;1.00;;;;;;5098491;28;20167;-70
2021/03/14 06:38:20;;;;;;;7.15;3.67;;;5.10;1.00;;;;;;5096485;28;20246;-70
2021/03/14 06:40:47;;;;;;;8.35;3.60;;;5.10;1.00;;;;;;5096457;28;20246;-69
2021/03/14 06:43:14;;;;;;;15.52;3.80;;;5.20;1.00;;;;;;5096300;28;20567;-70
2021/03/14 06:45:41;;;;;;;6.25;2.95;;;5.10;1.00;;;;;;5096796;28;20197;-70
2021/03/14 06:48:07;;;;;;;7.63;2.67;;;5.10;1.00;;;;;;5096537;28;20160;-69
2021/03/14 06:50:32;;;;;;;13.18;4.05;;;4.90;1.00;;;;;;5096240;28;20167;-69
2021/03/14 06:53:17;;;;;;;8.87;3.53;;;5.10;1.00;;;;;;5096082;28;20648;-70
2021/03/14 06:55:44;;;;;;;7.70;3.63;;;5.20;1.00;;;;;;5096443;28;20152;-70
2021/03/14 06:58:24;;;;;;;18.55;4.22;;;5.50;1.00;;;;;;5095974;28;20167;-69
2021/03/14 07:01:11;;;;;;;9.27;4.03;;;5.30;1.00;;;;;;5095883;28;20167;-69
2021/03/14 07:03:50;;;;;;;10.98;2.85;;;5.30;1.00;;;;;;5095942;28;20532;-69
2021/03/14 07:06:21;;;;;;;9.63;3.97;;;5.10;1.00;;;;;;5096032;28;20552;-69
2021/03/14 07:08:57;;;;;;;8.55;3.25;;;5.20;1.00;;;;;;5095827;28;20163;-69
2021/03/14 07:11:41;;;;;;;10.32;3.78;;;5.10;1.00;;;;;;5096052;28;20148;-69
2021/03/14 07:14:11;;;;;;;9.93;3.15;;;5.40;1.00;;;;;;5095785;28;20148;-70
2021/03/14 07:16:48;;;;;;;10.70;3.50;;;5.40;1.00;;;;;;5095567;28;20385;-69
2021/03/14 07:19:22;;;;;;;13.00;3.00;;;5.30;1.00;;;;;;5095613;28;20220;-69
2021/03/14 07:22:07;;;;;;;14.90;4.22;;;5.10;1.00;;;;;;5095730;28;20187;-69
2021/03/14 07:24:34;;;;;;;12.85;4.30;;;5.20;1.00;;;;;;5095532;28;20224;-69
2021/03/14 07:27:01;;;;;;;9.32;3.50;;;5.30;1.00;;;;;;5095689;28;20183;-69
2021/03/14 07:29:27;;;;;;;17.60;5.05;;;5.40;1.00;;;;;;5095469;28;20173;-69
2021/03/14 07:31:54;;;;;;;16.48;4.80;;;5.40;1.00;;;;;;5095583;28;20557;-70
2021/03/14 07:34:20;;;;;;;10.90;4.30;;;5.50;1.00;;;;;;5095327;28;20213;-71
2021/03/14 07:36:46;;;;;;;10.73;3.67;;;5.60;1.00;;;;;;5095534;28;20171;-69
2021/03/14 07:39:12;;;;;;;10.90;3.63;;;5.30;1.00;;;;;;5095818;28;20180;-69
2021/03/14 07:41:38;;;;;;;8.33;3.97;;;5.50;1.00;;;;;;5095149;28;20672;-70
2021/03/14 07:44:06;;;;;;;11.30;5.53;;;5.60;1.00;;;;;;5095332;28;20641;-70
2021/03/14 07:46:32;;;;;;;10.57;4.82;;;5.60;1.00;;;;;;5095049;28;20257;-69
2021/03/14 07:49:00;;;;;;;11.13;4.50;;;5.60;1.00;;;;;;5095129;28;20591;-70
2021/03/14 07:51:28;;;;;;;7.60;4.00;;;5.70;1.00;;;;;;5094928;28;20180;-70
2021/03/14 07:53:58;;;;;;;9.55;3.85;;;5.90;1.00;;;;;;5095013;28;20187;-70
2021/03/14 07:56:28;;;;;;;12.38;5.32;;;5.90;1.00;;;;;;5094955;28;20190;-69
2021/03/14 07:58:57;;;;;;;5.82;3.78;;;5.90;1.00;;;;;;5095407;28;20152;-69
2021/03/14 08:01:24;;;;;;;10.45;4.55;;;5.90;1.00;;;;;;5094717;28;20641;-69
2021/03/14 08:03:50;;;;;;;8.27;4.30;;;5.90;1.00;;;;;;5095082;28;20528;-70
2021/03/14 08:06:16;;;;;;;7.07;3.40;;;5.90;1.00;;;;;;5094599;28;20194;-69
2021/03/14 08:08:41;;;;;;;8.57;4.27;;;5.70;1.00;;;;;;5095337;28;20160;-70
2021/03/14 08:11:21;;;;;;;10.80;4.83;;;5.70;1.00;;;;;;5094671;28;20171;-69
2021/03/14 08:13:47;;;;;;;4.53;3.17;;;5.80;1.00;;;;;;5094864;28;20163;-69
2021/03/14 08:16:14;;;;;;;8.30;4.07;;;6.00;1.00;;;;;;5094599;28;20168;-69
2021/03/14 08:18:44;;;;;;;8.57;4.47;;;5.90;1.00;;;;;;5094452;28;20164;-68
2021/03/14 08:21:37;;;;;;;6.88;4.07;;;5.90;1.00;;;;;;5094371;28;20570;-69
2021/03/14 08:24:03;;;;;;;10.02;3.47;;;5.70;1.00;;;;;;5091504;28;20678;-69
2021/03/14 08:26:35;;;;;;;6.75;3.40;;;5.40;1.00;;;;;;5094965;28;20222;-70
2021/03/14 08:29:13;;;;;;;6.18;2.35;;;5.50;1.00;;;;;;5093961;28;20144;-70
2021/03/14 08:31:52;;;;;;;10.18;2.80;;;5.70;1.00;;;;;;5094520;28;20330;-70
2021/03/14 08:34:29;;;;;;;11.90;4.35;;;5.60;1.00;;;;;;5094025;28;20198;-70
2021/03/14 08:36:55;;;;;;;15.00;3.10;;;5.60;1.00;;;;;;5094050;28;20166;-70
2021/03/14 08:39:29;;;;;;;13.55;4.72;;;5.90;1.00;;;;;;5094010;28;20174;-70
2021/03/14 08:42:05;;;;;;;8.50;3.25;;;5.70;1.00;;;;;;5093856;28;20190;-70
2021/03/14 08:44:39;;;;;;;10.20;3.88;;;5.70;1.00;;;;;;5094670;28;20499;-70
2021/03/14 08:47:05;;;;;;;10.77;5.20;;;5.60;1.00;;;;;;5093603;28;20195;-69
2021/03/14 08:49:32;;;;;;;11.33;3.07;;;5.60;1.00;;;;;;5093680;28;20166;-70
2021/03/14 08:51:58;;;;;;;6.10;3.10;;;5.80;1.00;;;;;;5093589;28;20183;-69
2021/03/14 08:54:32;;;;;;;11.40;4.80;;;5.70;1.00;;;;;;5093622;28;20168;-69
2021/03/14 08:57:00;;;;;;;9.80;3.83;;;5.70;1.00;;;;;;5093933;28;20151;-70
2021/03/14 08:59:26;;;;;;;10.98;4.72;;;5.80;1.00;;;;;;5093523;28;20254;-69
2021/03/14 09:01:54;;;;;;;7.50;4.00;;;5.70;1.00;;;;;;5093437;28;20237;-69
2021/03/14 09:04:29;;;;;;;11.65;3.83;;;5.90;1.00;;;;;;5093499;28;20219;-70
2021/03/14 09:07:07;;;;;;;11.43;4.22;;;5.70;1.00;;;;;;5093092;28;20671;-70
2021/03/14 09:09:34;;;;;;;10.80;4.82;;;5.90;1.00;;;;;;5093393;28;20169;-69
2021/03/14 09:12:05;;;;;;;6.78;3.95;;;5.80;1.00;;;;;;5093555;28;20255;-70
2021/03/14 09:14:37;;;;;;;16.02;6.10;;;5.60;1.00;;;;;;5093248;28;20533;-70
2021/03/14 09:17:05;;;;;;;13.00;4.65;;;5.80;49.50;;;;;;5093287;28;20242;-69
2021/03/14 09:19:39;;;;;;;9.93;4.82;;;5.80;1.00;;;;;;5093319;28;20171;-69
2021/03/14 09:22:08;;;;;;;17.65;4.60;;;6.00;1.00;;;;;;5093238;28;20191;-69
2021/03/14 09:25:01;;;;;;;11.85;4.32;;;5.90;1.00;;;;;;5093171;28;20305;-69
2021/03/14 09:27:46;;;;;;;13.10;5.10;;;5.80;1.00;;;;;;5088962;28;20209;-70
2021/03/14 09:30:17;;;;;;;15.07;4.60;;;5.80;27.80;;;;;;5093322;28;20170;-69
2021/03/14 09:32:46;;;;;;;10.20;4.82;;;5.80;47.60;;;;;;5093362;28;20692;-70
2021/03/14 09:35:16;;;;;;;9.18;4.53;;;5.90;97.90;;;;;;5093426;28;20167;-70
2021/03/14 09:37:43;;;;;;;11.55;6.88;;;5.70;24.30;;;;;;5093388;28;20293;-69
2021/03/14 09:40:13;;;;;;;8.02;5.13;;;5.70;47.30;;;;;;5092287;28;20525;-69
2021/03/14 09:42:40;;;;;;;9.30;4.53;;;5.60;74.80;;;;;;5093393;28;20179;-68
2021/03/14 09:45:17;;;;;;;13.00;5.15;;;5.80;99.90;;;;;;5093028;28;20455;-70
2021/03/14 09:48:02;;;;;;;13.50;5.18;;;5.60;99.90;;;;;;5092955;28;20246;-69
2021/03/14 09:50:29;;;;;;;7.70;4.75;;;5.90;99.90;;;;;;5092919;28;20174;-69
2021/03/14 09:52:59;;;;;;;16.80;6.13;;;5.90;99.90;;;;;;5092805;28;20198;-69
2021/03/14 09:55:26;;;;;;;12.43;5.05;;;6.00;99.90;;;;;;5093077;28;20175;-69
2021/03/14 09:57:52;;;;;;;9.60;4.18;;;5.70;99.90;;;;;;5093037;28;20168;-68
2021/03/14 10:00:22;;;;;;;5.30;4.40;;;5.50;99.90;;;;;;5093509;28;20179;-68
2021/03/14 10:02:49;;;;;;;6.72;4.18;;;5.30;99.90;;;;;;5092770;28;20439;-68
2021/03/14 10:05:14;;;;;;;7.70;3.47;;;5.40;1.00;;;;;;5092822;28;20551;-68
2021/03/14 10:07:40;;;;;;;7.23;3.53;;;5.40;1.00;;;;;;5092751;28;20266;-68
2021/03/14 10:10:10;;;;;;;5.30;2.90;;;5.40;99.90;;;;;;5092749;28;20632;-68
2021/03/14 10:12:36;;;;;;;6.20;4.00;;;5.60;1.00;;;;;;5092955;28;20211;-69
2021/03/14 10:15:03;;;;;;;5.97;3.37;;;5.60;1.00;;;;;;5092724;28;20286;-69
2021/03/14 10:17:29;;;;;;;6.03;2.80;;;5.50;99.90;;;;;;5092674;28;20812;-69
2021/03/14 10:19:55;;;;;;;5.20;3.23;;;5.50;99.90;;;;;;5093020;28;20160;-69
2021/03/14 10:22:31;;;;;;;5.10;3.43;;;5.30;99.90;;;;;;5092662;28;20229;-69
2021/03/14 10:24:56;;;;;;;5.07;3.35;;;5.40;1.00;;;;;;5092516;28;20164;-69
2021/03/14 10:27:22;;;;;;;3.73;3.43;;;5.30;1.00;;;;;;5092907;28;20189;-69
2021/03/14 10:29:56;;;;;;;11.10;2.93;;;5.40;1.00;;;;;;5092638;28;20247;-69
2021/03/14 10:32:24;;;;;;;4.55;3.13;;;5.50;1.00;;;;;;5092858;28;20885;-69
2021/03/14 10:34:56;;;;;;;9.32;6.72;;;5.40;1.00;;;;;;5092763;28;20221;-69
2021/03/14 10:37:35;;;;;;;7.63;3.40;;;5.70;1.00;;;;;;5092618;28;20154;-69
2021/03/14 10:40:18;;;;;;;4.30;2.92;;;5.60;37.10;;;;;;5092281;28;20166;-69
2021/03/14 10:42:47;;;;;;;8.00;3.75;;;5.60;1.00;;;;;;5093046;28;20187;-69
2021/03/14 10:45:16;;;;;;;5.88;3.05;;;5.60;1.00;;;;;;5092285;28;20163;-69
2021/03/14 10:47:43;;;;;;;4.55;3.05;;;5.90;1.00;;;;;;5092441;28;20293;-67
2021/03/14 10:50:20;;;;;;;3.75;2.95;;;5.50;1.00;;;;;;5092839;28;20528;-69
2021/03/14 10:53:09;;;;;;;7.65;4.10;;;5.60;1.00;;;;;;5096099;28;20227;-69
2021/03/14 10:55:35;;;;;;;4.75;3.58;;;5.90;99.80;;;;;;5096337;28;20152;-69
2021/03/14 10:58:15;;;;;;;4.43;3.83;;;6.10;1.00;;;;;;5095862;28;20222;-69
2021/03/14 11:00:44;;;;;;;6.97;4.22;;;5.90;99.90;;;;;;5096096;28;20147;-69
2021/03/14 11:03:27;;;;;;;6.78;4.60;;;5.90;99.90;;;;;;5095997;28;20219;-69
2021/03/14 11:06:17;;;;;;;7.80;6.47;;;5.80;1.00;;;;;;5095891;28;20179;-69
2021/03/14 11:09:06;;;;;;;12.23;5.40;;;5.70;1.00;;;;;;5095838;28;20182;-69
2021/03/14 11:11:42;;;;;;;7.45;5.80;;;5.90;1.00;;;;;;5095678;28;20188;-69
2021/03/14 11:14:35;;;;;;;8.63;5.40;;;5.80;3.90;;;;;;5095804;28;20159;-69
2021/03/14 11:17:19;;;;;;;7.82;5.10;;;6.00;1.00;;;;;;5095574;28;20163;-69
2021/03/14 11:19:48;;;;;;;6.55;4.85;;;6.20;1.00;;;;;;5095608;28;20652;-69
2021/03/14 11:22:16;;;;;;;8.10;5.55;;;6.10;99.90;;;;;;5095426;28;20187;-69
2021/03/14 11:24:42;;;;;;;5.60;4.82;;;6.30;1.00;;;;;;5095705;28;20251;-69
2021/03/14 11:27:08;;;;;;;11.93;4.85;;;6.10;99.90;;;;;;5095395;28;20191;-68
2021/03/14 11:29:35;;;;;;;7.03;6.25;;;6.10;1.00;;;;;;5095682;28;20168;-69
2021/03/14 11:32:01;;;;;;;7.28;5.97;;;6.10;1.00;;;;;;5095536;28;20183;-69
2021/03/14 11:34:27;;;;;;;6.60;4.80;;;6.30;99.90;;;;;;5095346;28;20202;-70
2021/03/14 11:36:52;;;;;;;5.53;4.60;;;6.30;99.90;;;;;;5095275;28;20214;-70
2021/03/14 11:39:18;;;;;;;7.50;4.87;;;6.50;99.90;;;;;;5095194;28;20171;-70
2021/03/14 11:41:46;;;;;;;6.03;4.03;;;6.70;99.90;;;;;;5095527;28;20198;-70
2021/03/14 11:44:11;;;;;;;6.15;4.78;;;6.60;99.90;;;;;;5095394;28;20175;-70
2021/03/14 11:46:37;;;;;;;3.97;3.57;;;6.50;99.90;;;;;;5094958;28;20199;-69
2021/03/14 11:49:03;;;;;;;4.90;4.00;;;6.90;99.90;;;;;;5095704;28;20178;-70
2021/03/14 11:51:29;;;;;;;6.80;3.92;;;6.80;99.90;;;;;;5095146;28;20176;-70
2021/03/14 11:53:58;;;;;;;4.30;3.90;;;6.90;99.90;;;;;;5095277;28;20246;-69
2021/03/14 11:56:24;;;;;;;4.65;4.00;;;7.00;2.30;;;;;;5095182;28;20376;-70
2021/03/14 11:58:50;;;;;;;5.50;4.18;;;6.80;90.70;;;;;;5095369;28;20171;-70
2021/03/14 12:01:15;;;;;;;4.63;4.10;;;7.00;27.10;;;;;;5094463;28;20651;-69
2021/03/14 12:03:41;;;;;;;8.27;4.70;;;7.00;64.90;;;;;;5094129;28;20166;-70
2021/03/14 12:06:07;;;;;;;5.20;4.70;;;7.20;14.70;;;;;;5094826;28;20263;-70
2021/03/14 12:08:32;;;;;;;5.57;4.20;;;7.50;1.00;;;;;;5094658;28;20199;-70
2021/03/14 12:10:58;;;;;;;6.50;4.50;;;7.70;1.00;;;;;;5094597;28;20163;-70
2021/03/14 12:13:23;;;;;;;6.53;4.40;;;7.80;1.00;;;;;;5094490;28;20183;-70
2021/03/14 12:15:49;;;;;;;4.90;4.40;;;7.30;1.00;;;;;;5094661;28;20194;-69
2021/03/14 12:18:14;;;;;;;6.03;4.00;;;7.10;1.00;;;;;;5094234;28;20218;-69
2021/03/14 12:20:40;;;;;;;7.00;4.53;;;7.20;1.00;;;;;;5094315;28;20178;-69
2021/03/14 12:23:08;;;;;;;4.43;3.40;;;7.50;1.00;;;;;;5094442;28;20191;-69
2021/03/14 12:25:34;;;;;;;5.40;4.03;;;7.90;1.00;;;;;;5094596;28;20451;-69
2021/03/14 12:27:59;;;;;;;5.17;4.10;;;7.50;1.00;;;;;;5094316;28;20171;-69
2021/03/14 12:30:25;;;;;;;4.63;3.90;;;7.50;1.00;;;;;;5094651;28;20164;-69
2021/03/14 12:32:50;;;;;;;4.83;3.60;;;7.60;1.00;;;;;;5094400;28;20206;-69
2021/03/14 12:35:16;;;;;;;5.17;3.87;;;7.80;1.00;;;;;;5092825;28;20175;-69
2021/03/14 12:37:42;;;;;;;4.10;3.70;;;7.50;1.00;;;;;;5094116;28;20255;-69
2021/03/14 12:40:08;;;;;;;5.80;4.03;;;7.40;1.00;;;;;;5094092;28;20171;-69
2021/03/14 12:42:33;;;;;;;3.92;3.30;;;7.50;1.00;;;;;;5093963;28;20183;-69
2021/03/14 12:44:59;;;;;;;3.57;3.27;;;7.50;1.00;;;;;;5094193;28;20221;-69
2021/03/14 12:47:25;;;;;;;4.50;3.47;;;7.50;1.00;;;;;;5094086;28;20172;-69
2021/03/14 12:49:52;;;;;;;4.93;3.67;;;7.50;1.00;;;;;;5092717;28;20628;-69
2021/03/14 12:52:18;;;;;;;4.57;4.18;;;7.90;1.00;;;;;;5093746;28;20745;-69
2021/03/14 12:54:44;;;;;;;4.40;4.00;;;8.00;1.00;;;;;;5093577;28;20171;-69
2021/03/14 12:57:09;;;;;;;4.30;3.70;;;8.00;1.00;;;;;;5093756;28;20171;-69
2021/03/14 12:59:35;;;;;;;4.63;3.07;;;7.90;1.00;;;;;;5093560;28;20198;-70
2021/03/14 13:02:00;;;;;;;4.07;3.67;;;8.00;1.00;;;;;;5093532;28;20195;-70
2021/03/14 13:04:27;;;;;;;4.40;3.00;;;7.80;1.00;;;;;;5093998;28;20168;-69
2021/03/14 13:06:53;;;;;;;5.60;3.80;;;8.00;1.00;;;;;;5093489;28;20201;-70
2021/03/14 13:09:18;;;;;;;4.73;3.80;;;7.80;1.00;;;;;;5093354;28;20163;-70
2021/03/14 13:11:44;;;;;;;5.43;3.33;;;7.60;1.00;;;;;;5093364;28;20184;-70